Time;durP1;ratioP1;P1;durP2;ratioP2;P2;SDS_P1;SDS_P2;PMS_P1;PMS_P2;Temp;Humidity;BMP_temperature;BMP_pressure;BME280_temperature;BME280_humidity;BME280_pressure;Samples;Min_cycle;Max_cycle;Signal;HPM_P1;HPM_P2
2021/07/19 00:02:00;;;;;;;4.97;2.55;;;18.10;99.90;;;;;;5007082;28;20053;-66
2021/07/19 00:04:31;;;;;;;5.47;2.75;;;18.10;99.90;;;;;;5004134;28;20048;-65
2021/07/19 00:06:58;;;;;;;4.28;2.15;;;18.00;99.90;;;;;;5004784;28;20051;-65
2021/07/19 00:09:26;;;;;;;6.63;2.17;;;18.00;99.90;;;;;;5002209;28;20050;-67
2021/07/19 00:11:53;;;;;;;4.63;2.15;;;17.90;99.90;;;;;;5003993;28;20561;-66
2021/07/19 00:14:20;;;;;;;2.63;2.15;;;17.80;99.90;;;;;;5000472;28;20130;-67
2021/07/19 00:16:47;;;;;;;6.85;3.10;;;17.80;99.90;;;;;;5000703;28;20081;-66
2021/07/19 00:19:14;;;;;;;3.60;2.15;;;17.80;99.90;;;;;;5002855;28;20050;-67
2021/07/19 00:21:41;;;;;;;5.13;2.50;;;17.80;99.90;;;;;;4998573;28;20042;-65
2021/07/19 00:24:08;;;;;;;4.55;2.33;;;17.80;99.90;;;;;;5001772;28;20136;-65
2021/07/19 00:26:35;;;;;;;5.35;1.90;;;17.70;99.90;;;;;;5003463;28;20049;-67
2021/07/19 00:29:02;;;;;;;4.10;2.60;;;17.80;99.90;;;;;;5000221;28;20085;-66
2021/07/19 00:31:32;;;;;;;3.13;1.90;;;17.80;99.90;;;;;;5002424;28;20054;-65
2021/07/19 00:34:00;;;;;;;5.00;2.15;;;17.80;99.90;;;;;;5008752;28;20206;-67
2021/07/19 00:36:32;;;;;;;3.72;2.42;;;17.80;99.90;;;;;;4655276;28;10001325;-66
2021/07/19 00:38:59;;;;;;;3.25;1.98;;;17.70;99.90;;;;;;1715654;28;10002977;-67
2021/07/19 00:41:26;;;;;;;3.63;2.10;;;17.70;99.90;;;;;;5001913;28;20119;-65
2021/07/19 00:43:54;;;;;;;3.50;2.22;;;17.70;99.90;;;;;;5004225;28;20068;-66
2021/07/19 00:46:21;;;;;;;4.63;2.42;;;17.60;99.90;;;;;;4989033;28;20089;-65
2021/07/19 00:48:49;;;;;;;4.18;2.38;;;17.60;99.90;;;;;;4992273;28;20065;-66
2021/07/19 00:51:17;;;;;;;5.53;3.65;;;17.60;99.90;;;;;;5005416;28;20134;-65
2021/07/19 00:53:46;;;;;;;7.40;3.15;;;17.60;99.90;;;;;;4988721;28;20554;-66
2021/07/19 00:56:16;;;;;;;20.20;3.92;;;17.60;99.90;;;;;;5006653;28;20145;-66
2021/07/19 00:58:48;;;;;;;5.47;2.25;;;17.50;99.90;;;;;;5004498;28;20060;-66
2021/07/19 01:01:17;;;;;;;3.35;2.75;;;17.50;99.90;;;;;;4989705;28;20044;-66
2021/07/19 01:03:48;;;;;;;3.60;2.60;;;17.50;99.90;;;;;;5004315;28;20038;-65
2021/07/19 01:06:17;;;;;;;3.70;2.63;;;17.40;99.90;;;;;;4987975;28;20132;-66
2021/07/19 01:08:45;;;;;;;3.53;2.42;;;17.40;99.90;;;;;;5002341;28;20388;-66
2021/07/19 01:11:13;;;;;;;3.85;2.25;;;17.40;99.90;;;;;;4999348;28;20050;-65
2021/07/19 01:13:41;;;;;;;4.07;3.08;;;17.40;99.90;;;;;;5000883;28;20057;-65
2021/07/19 01:16:08;;;;;;;2.92;2.28;;;17.30;99.90;;;;;;4984761;28;20045;-67
2021/07/19 01:18:36;;;;;;;1.83;1.65;;;17.40;99.90;;;;;;5005314;28;20064;-67
2021/07/19 01:21:04;;;;;;;3.30;2.30;;;17.40;99.90;;;;;;4987531;28;20057;-65
2021/07/19 01:23:53;;;;;;;4.88;1.83;;;17.40;99.90;;;;;;4988241;28;20053;-66
2021/07/19 01:26:58;;;;;;;5.05;3.28;;;17.40;99.90;;;;;;4985050;28;20067;-66
2021/07/19 01:29:27;;;;;;;5.22;2.55;;;17.30;99.90;;;;;;4997917;28;20103;-65
2021/07/19 01:31:55;;;;;;;4.50;2.60;;;17.30;99.90;;;;;;5005908;28;20065;-65
2021/07/19 01:34:27;;;;;;;4.93;2.15;;;17.20;99.90;;;;;;4986678;28;20050;-68
2021/07/19 01:37:02;;;;;;;3.88;1.55;;;17.20;99.90;;;;;;4985780;28;20140;-65
2021/07/19 01:39:38;;;;;;;2.55;1.58;;;17.10;99.90;;;;;;4982923;28;20526;-66
2021/07/19 01:42:08;;;;;;;3.72;3.13;;;17.10;99.90;;;;;;4999953;28;20120;-65
2021/07/19 01:44:38;;;;;;;3.63;2.15;;;17.10;99.90;;;;;;4988940;28;20108;-67
2021/07/19 01:47:09;;;;;;;4.13;2.05;;;17.00;99.90;;;;;;4977135;28;20038;-67
2021/07/19 01:49:41;;;;;;;3.63;2.10;;;17.10;99.90;;;;;;5002029;28;20082;-66
2021/07/19 01:52:11;;;;;;;3.08;2.05;;;17.00;99.90;;;;;;5005135;28;20050;-66
2021/07/19 01:54:40;;;;;;;3.25;1.73;;;17.00;99.90;;;;;;4986020;28;20070;-66
2021/07/19 01:57:07;;;;;;;2.40;1.90;;;17.00;99.90;;;;;;5003555;28;20165;-65
2021/07/19 01:59:44;;;;;;;2.15;1.90;;;17.00;99.90;;;;;;4985659;28;20073;-65
2021/07/19 02:02:21;;;;;;;3.28;2.17;;;17.00;99.90;;;;;;5002834;28;20117;-67
2021/07/19 02:04:54;;;;;;;3.70;2.97;;;17.00;99.90;;;;;;4987251;28;20100;-67
2021/07/19 02:07:25;;;;;;;3.28;2.28;;;17.00;99.90;;;;;;4969091;28;20045;-65
2021/07/19 02:09:58;;;;;;;4.93;2.97;;;17.00;99.90;;;;;;5005057;28;20073;-66
2021/07/19 02:12:56;;;;;;;3.22;2.33;;;17.00;99.90;;;;;;4992049;28;20046;-65
2021/07/19 02:15:31;;;;;;;2.38;1.65;;;16.90;99.90;;;;;;4984622;28;20049;-66
2021/07/19 02:18:01;;;;;;;3.53;2.00;;;16.90;99.90;;;;;;5004743;28;20054;-65
2021/07/19 02:20:29;;;;;;;1.42;1.33;;;16.90;99.90;;;;;;5002421;28;20081;-65
2021/07/19 02:23:01;;;;;;;8.70;3.88;;;16.90;99.90;;;;;;5005323;28;20065;-67
2021/07/19 02:26:04;;;;;;;3.20;2.42;;;16.80;99.90;;;;;;4937746;28;20444;-67
2021/07/19 02:28:33;;;;;;;4.75;2.63;;;16.90;99.90;;;;;;4976359;28;20053;-66
2021/07/19 02:31:04;;;;;;;2.83;2.20;;;16.80;99.90;;;;;;5002070;28;20050;-67
2021/07/19 02:33:34;;;;;;;2.58;2.13;;;16.80;99.90;;;;;;5002383;28;20054;-66
2021/07/19 02:36:06;;;;;;;4.45;2.72;;;16.80;99.90;;;;;;4998962;28;20057;-66
2021/07/19 02:38:36;;;;;;;1.98;1.50;;;16.70;99.90;;;;;;5003677;28;20049;-67
2021/07/19 02:41:19;;;;;;;4.05;2.38;;;16.70;99.90;;;;;;4982881;28;21736;-65
2021/07/19 02:43:53;;;;;;;2.97;2.22;;;16.70;99.90;;;;;;4983725;28;20462;-66
2021/07/19 02:46:25;;;;;;;3.15;2.40;;;16.70;99.90;;;;;;4986666;28;20046;-65
2021/07/19 02:48:54;;;;;;;2.08;1.60;;;16.70;99.90;;;;;;5000300;28;20088;-65
2021/07/19 02:51:24;;;;;;;3.38;1.98;;;16.70;99.90;;;;;;4984459;28;20042;-66
2021/07/19 02:53:55;;;;;;;1.80;1.70;;;16.70;99.90;;;;;;4984944;28;20101;-68
2021/07/19 02:56:23;;;;;;;5.60;2.17;;;16.70;99.90;;;;;;5000489;28;20495;-65
2021/07/19 02:58:51;;;;;;;3.60;2.55;;;16.70;99.90;;;;;;5001976;28;20136;-66
2021/07/19 03:01:22;;;;;;;1.98;1.65;;;16.70;99.90;;;;;;5000773;28;20768;-66
2021/07/19 03:03:57;;;;;;;4.25;2.13;;;16.60;99.90;;;;;;5003299;28;20053;-65
2021/07/19 03:06:33;;;;;;;2.30;2.10;;;16.60;99.90;;;;;;5002223;28;20136;-65
2021/07/19 03:09:05;;;;;;;2.88;2.10;;;16.60;99.90;;;;;;4990875;28;20053;-65
2021/07/19 03:11:45;;;;;;;3.72;2.35;;;16.60;99.90;;;;;;4998831;28;20667;-65
2021/07/19 03:14:21;;;;;;;2.28;1.90;;;16.60;99.90;;;;;;4982663;28;20069;-67
2021/07/19 03:16:50;;;;;;;2.65;2.03;;;16.60;99.90;;;;;;5000993;28;20496;-65
2021/07/19 03:19:20;;;;;;;2.67;2.17;;;16.60;99.90;;;;;;4986884;28;20049;-66
2021/07/19 03:21:50;;;;;;;3.50;2.10;;;16.60;99.90;;;;;;4980619;28;20042;-66
2021/07/19 03:24:26;;;;;;;4.38;2.22;;;16.50;99.90;;;;;;5007058;28;20452;-67
2021/07/19 03:26:55;;;;;;;5.57;2.30;;;16.50;99.90;;;;;;4982830;28;20108;-68
2021/07/19 03:29:23;;;;;;;6.57;2.10;;;16.50;99.90;;;;;;5003452;28;20550;-67
2021/07/19 03:32:09;;;;;;;4.13;2.08;;;16.50;99.90;;;;;;5005371;28;20061;-65
2021/07/19 03:34:40;;;;;;;2.80;1.88;;;16.50;99.90;;;;;;4990068;28;20559;-67
2021/07/19 03:37:10;;;;;;;4.93;2.22;;;16.50;99.90;;;;;;5002213;28;20050;-65
2021/07/19 03:39:41;;;;;;;4.07;1.67;;;16.50;99.90;;;;;;5004647;28;20058;-66
2021/07/19 03:42:13;;;;;;;4.30;1.95;;;16.50;99.90;;;;;;4985916;28;20542;-66
2021/07/19 03:44:50;;;;;;;2.25;1.67;;;16.40;99.90;;;;;;5005250;28;20066;-66
2021/07/19 03:47:19;;;;;;;2.90;2.37;;;16.50;99.90;;;;;;5002772;28;20479;-66
2021/07/19 03:49:47;;;;;;;3.42;2.25;;;16.50;99.90;;;;;;5006798;28;20322;-65
2021/07/19 03:52:16;;;;;;;3.15;1.90;;;16.50;99.90;;;;;;5002465;28;20064;-67
2021/07/19 03:54:44;;;;;;;3.40;2.10;;;16.50;99.90;;;;;;5001646;28;20049;-67
2021/07/19 03:57:13;;;;;;;2.60;1.70;;;16.50;99.90;;;;;;5004956;28;20093;-65
2021/07/19 03:59:42;;;;;;;1.90;1.38;;;16.50;99.90;;;;;;4984415;28;20046;-65
2021/07/19 04:02:18;;;;;;;1.90;1.50;;;16.40;99.90;;;;;;4987620;28;20399;-66
2021/07/19 04:05:03;;;;;;;2.90;1.50;;;16.40;99.90;;;;;;4987160;28;20045;-66
2021/07/19 04:07:36;;;;;;;3.17;1.75;;;16.40;99.90;;;;;;4986734;28;20048;-66
2021/07/19 04:10:06;;;;;;;2.25;1.75;;;16.40;99.90;;;;;;5005899;28;20145;-67
2021/07/19 04:12:39;;;;;;;2.78;1.67;;;16.40;99.90;;;;;;5005372;28;20632;-66
2021/07/19 04:15:07;;;;;;;2.97;2.00;;;16.40;99.90;;;;;;4987840;28;20133;-66
2021/07/19 04:17:34;;;;;;;2.60;1.52;;;16.40;99.90;;;;;;4986673;28;20287;-69
2021/07/19 04:20:04;;;;;;;3.50;1.73;;;16.40;99.90;;;;;;5003993;28;20742;-68
2021/07/19 04:22:32;;;;;;;1.65;1.05;;;16.40;99.90;;;;;;5006703;28;20620;-68
2021/07/19 04:25:11;;;;;;;4.30;1.58;;;16.40;99.90;;;;;;5005413;28;20772;-65
2021/07/19 04:27:40;;;;;;;;;;;16.40;99.90;;;;;;4970258;28;20111;-66
2021/07/19 04:30:08;;;;;;;2.78;2.05;;;16.40;99.90;;;;;;5004716;28;20360;-66
2021/07/19 04:32:51;;;;;;;1.63;1.52;;;16.50;99.90;;;;;;4982484;28;20131;-65
2021/07/19 04:35:20;;;;;;;4.22;1.75;;;16.50;99.90;;;;;;4987940;28;20100;-65
2021/07/19 04:37:50;;;;;;;8.05;1.92;;;16.50;99.90;;;;;;4986794;28;20134;-65
2021/07/19 04:40:21;;;;;;;2.65;1.45;;;16.60;99.90;;;;;;5005850;28;20045;-65
2021/07/19 04:42:49;;;;;;;2.05;1.02;;;16.60;99.90;;;;;;5001425;28;20049;-66
2021/07/19 04:45:19;;;;;;;5.57;1.85;;;16.70;99.90;;;;;;5002946;28;20042;-67
2021/07/19 04:47:48;;;;;;;2.53;1.58;;;16.70;99.90;;;;;;5004802;28;20116;-65
2021/07/19 04:50:17;;;;;;;2.33;1.23;;;16.80;99.90;;;;;;5001731;28;20107;-65
2021/07/19 04:53:02;;;;;;;5.05;2.08;;;16.90;99.90;;;;;;5002387;28;20057;-65
2021/07/19 04:55:30;;;;;;;2.55;1.65;;;17.00;99.90;;;;;;4999144;28;20097;-67
2021/07/19 04:57:59;;;;;;;1.85;1.35;;;17.10;99.90;;;;;;4999279;28;20046;-65
2021/07/19 05:00:29;;;;;;;2.95;1.73;;;17.10;99.90;;;;;;4982234;28;20052;-66
2021/07/19 05:02:58;;;;;;;2.08;1.63;;;17.20;99.90;;;;;;4985324;28;20135;-67
2021/07/19 05:05:27;;;;;;;6.05;1.40;;;17.30;99.90;;;;;;5002487;28;20066;-65
2021/07/19 05:07:56;;;;;;;2.30;1.17;;;17.40;99.90;;;;;;5001733;28;20074;-67
2021/07/19 05:10:27;;;;;;;3.85;1.48;;;17.50;99.90;;;;;;5003910;28;20050;-65
2021/07/19 05:12:55;;;;;;;4.13;1.40;;;17.50;99.90;;;;;;5000476;28;20069;-66
2021/07/19 05:15:22;;;;;;;1.65;0.98;;;17.60;99.90;;;;;;5001904;28;20202;-66
2021/07/19 05:17:50;;;;;;;1.33;1.23;;;17.70;99.90;;;;;;5001647;28;20042;-68
2021/07/19 05:20:21;;;;;;;2.67;1.10;;;17.70;99.90;;;;;;5009120;28;20336;-67
2021/07/19 05:22:52;;;;;;;1.13;1.00;;;17.80;99.90;;;;;;5001170;28;20129;-65
2021/07/19 05:25:26;;;;;;;;;;;17.90;99.90;;;;;;4994657;28;20049;-66
2021/07/19 05:28:03;;;;;;;2.00;1.30;;;17.90;99.90;;;;;;5004312;28;19925;-66
2021/07/19 05:30:31;;;;;;;0.90;0.90;;;18.00;99.90;;;;;;5000171;28;20061;-66
2021/07/19 05:32:58;;;;;;;1.83;1.10;;;18.00;99.90;;;;;;5002345;28;20115;-66
2021/07/19 05:35:25;;;;;;;2.30;1.60;;;18.10;99.90;;;;;;5000068;28;20053;-66
2021/07/19 05:37:52;;;;;;;3.15;1.67;;;18.20;99.90;;;;;;5002857;28;20050;-66
2021/07/19 05:40:19;;;;;;;1.98;1.20;;;18.20;99.90;;;;;;4986332;28;20131;-65
2021/07/19 05:42:46;;;;;;;2.13;1.33;;;18.30;99.90;;;;;;4997008;28;20093;-65
2021/07/19 05:45:14;;;;;;;2.05;1.00;;;18.30;99.90;;;;;;5000545;28;20050;-65
2021/07/19 05:47:41;;;;;;;3.38;2.13;;;18.30;99.90;;;;;;5000652;28;21769;-65
2021/07/19 05:50:10;;;;;;;0.82;0.68;;;18.30;99.90;;;;;;4996208;28;20057;-67
2021/07/19 05:52:37;;;;;;;1.08;0.82;;;18.20;99.90;;;;;;5003196;28;20050;-65
2021/07/19 05:55:05;;;;;;;2.05;1.52;;;18.20;99.90;;;;;;5002847;28;20050;-65
2021/07/19 05:57:33;;;;;;;1.13;1.00;;;18.20;99.90;;;;;;5000002;28;20429;-66
2021/07/19 06:00:00;;;;;;;4.55;1.55;;;18.20;99.90;;;;;;5002513;28;20542;-65
2021/07/19 06:02:28;;;;;;;1.15;0.77;;;18.30;99.90;;;;;;5004457;28;20095;-68
2021/07/19 06:04:55;;;;;;;4.47;1.48;;;18.30;99.90;;;;;;5001827;28;20111;-66
2021/07/19 06:07:23;;;;;;;3.72;0.85;;;18.30;99.90;;;;;;5000355;28;20125;-66
2021/07/19 06:09:50;;;;;;;3.10;1.40;;;18.40;99.90;;;;;;4999596;28;20046;-67
2021/07/19 06:12:16;;;;;;;4.28;1.92;;;18.40;99.90;;;;;;5004254;28;20046;-65
2021/07/19 06:14:44;;;;;;;1.40;0.98;;;18.40;99.90;;;;;;5001691;28;20757;-65
2021/07/19 06:17:12;;;;;;;1.25;1.10;;;18.40;99.90;;;;;;5002389;28;20053;-66
2021/07/19 06:19:43;;;;;;;1.83;1.50;;;18.50;99.90;;;;;;5000342;28;20049;-65
2021/07/19 06:22:11;;;;;;;1.67;0.98;;;18.50;99.90;;;;;;5002344;28;20053;-65
2021/07/19 06:24:38;;;;;;;2.28;1.25;;;18.50;99.90;;;;;;5000840;28;20046;-65
2021/07/19 06:27:09;;;;;;;4.20;1.10;;;18.50;99.90;;;;;;5003294;28;20069;-67
2021/07/19 06:29:36;;;;;;;1.88;0.80;;;18.60;99.90;;;;;;4999673;28;20058;-66
2021/07/19 06:32:03;;;;;;;1.90;0.73;;;18.70;99.90;;;;;;4999520;28;20096;-65
2021/07/19 06:34:30;;;;;;;2.35;0.82;;;18.70;99.90;;;;;;5003454;28;20129;-65
2021/07/19 06:36:57;;;;;;;0.90;0.55;;;18.80;99.90;;;;;;5001786;28;20792;-65
2021/07/19 06:39:24;;;;;;;2.38;1.38;;;18.80;99.90;;;;;;5000029;28;20060;-65
2021/07/19 06:41:51;;;;;;;1.35;0.70;;;18.90;99.90;;;;;;4998321;28;20096;-66
2021/07/19 06:44:18;;;;;;;0.98;0.60;;;19.00;99.90;;;;;;5000124;28;20050;-65
2021/07/19 06:46:45;;;;;;;1.23;0.50;;;19.10;99.90;;;;;;4999167;28;20116;-65
2021/07/19 06:49:11;;;;;;;3.17;0.70;;;19.10;99.90;;;;;;5003069;28;20049;-66
2021/07/19 06:51:38;;;;;;;1.02;0.65;;;19.20;99.90;;;;;;4998843;28;20077;-68
2021/07/19 06:54:05;;;;;;;0.77;0.50;;;19.30;99.90;;;;;;4985888;28;20112;-66
2021/07/19 06:56:32;;;;;;;2.00;0.50;;;19.40;99.90;;;;;;5001963;28;20062;-65
2021/07/19 06:58:59;;;;;;;1.65;0.95;;;19.50;99.90;;;;;;5000907;28;20127;-66
2021/07/19 07:01:26;;;;;;;1.73;1.35;;;19.60;99.90;;;;;;5000738;28;20054;-66
2021/07/19 07:03:53;;;;;;;1.30;0.77;;;19.80;99.90;;;;;;5000385;28;20411;-65
2021/07/19 07:06:27;;;;;;;1.88;0.50;;;19.90;99.90;;;;;;5001566;28;20089;-66
2021/07/19 07:08:55;;;;;;;2.53;1.20;;;19.90;99.90;;;;;;4999375;28;20065;-66
2021/07/19 07:11:22;;;;;;;2.22;1.05;;;20.00;99.90;;;;;;4996896;28;20054;-65
2021/07/19 07:13:49;;;;;;;1.30;0.68;;;20.00;99.90;;;;;;4999536;28;20053;-65
2021/07/19 07:16:16;;;;;;;2.42;1.35;;;20.00;99.90;;;;;;4996652;28;20046;-66
2021/07/19 07:18:44;;;;;;;2.47;1.00;;;19.90;99.90;;;;;;4998526;28;20067;-65
2021/07/19 07:21:11;;;;;;;1.20;0.47;;;19.90;99.90;;;;;;5001994;28;20073;-66
2021/07/19 07:23:38;;;;;;;0.73;0.45;;;19.80;99.90;;;;;;4998458;28;20046;-65
2021/07/19 07:26:05;;;;;;;1.27;0.80;;;19.80;99.90;;;;;;5000595;28;20057;-65
2021/07/19 07:28:32;;;;;;;2.85;0.52;;;19.70;99.90;;;;;;4999010;28;20492;-66
2021/07/19 07:31:00;;;;;;;1.13;0.60;;;19.80;99.90;;;;;;4981382;28;20049;-66
2021/07/19 07:33:27;;;;;;;1.00;0.88;;;19.70;99.90;;;;;;4996024;28;20108;-66
2021/07/19 07:35:54;;;;;;;0.95;0.75;;;19.60;99.90;;;;;;5001465;28;20061;-66
2021/07/19 07:38:21;;;;;;;1.05;0.75;;;19.50;99.90;;;;;;4997970;28;20101;-65
2021/07/19 07:40:52;;;;;;;1.65;1.05;;;19.50;99.90;;;;;;5002955;28;20049;-65
2021/07/19 07:43:19;;;;;;;1.40;0.40;;;19.60;99.90;;;;;;4998026;28;20157;-65
2021/07/19 07:45:49;;;;;;;1.15;0.80;;;19.60;99.90;;;;;;5000309;28;20499;-66
2021/07/19 07:48:17;;;;;;;0.57;0.55;;;19.60;99.90;;;;;;4999607;28;20050;-65
2021/07/19 07:50:45;;;;;;;0.95;0.60;;;19.60;99.90;;;;;;4998734;28;20057;-67
2021/07/19 07:53:12;;;;;;;4.00;1.15;;;19.60;99.90;;;;;;4995852;28;20057;-65
2021/07/19 07:55:39;;;;;;;1.33;0.95;;;19.60;99.90;;;;;;4997062;28;21180;-66
2021/07/19 07:58:09;;;;;;;1.50;1.35;;;19.70;99.90;;;;;;4997231;28;20042;-67
2021/07/19 08:00:36;;;;;;;1.33;0.57;;;19.80;99.90;;;;;;4999424;28;20518;-66
2021/07/19 08:03:03;;;;;;;4.47;1.17;;;19.90;99.90;;;;;;4998422;28;20108;-65
2021/07/19 08:05:30;;;;;;;0.93;0.32;;;20.10;99.90;;;;;;4996860;28;20050;-66
2021/07/19 08:07:57;;;;;;;0.85;0.40;;;20.10;99.90;;;;;;4998000;28;20137;-67
2021/07/19 08:10:24;;;;;;;1.08;0.55;;;20.20;99.90;;;;;;5000566;28;20041;-65
2021/07/19 08:12:51;;;;;;;2.15;0.82;;;20.30;99.90;;;;;;5004364;28;20084;-66
2021/07/19 08:15:18;;;;;;;2.22;0.50;;;20.40;99.90;;;;;;4982785;28;20050;-65
2021/07/19 08:17:45;;;;;;;0.88;0.43;;;20.30;99.90;;;;;;5006039;28;20050;-65
2021/07/19 08:20:13;;;;;;;0.52;0.35;;;20.30;99.90;;;;;;5002359;28;20054;-66
2021/07/19 08:22:40;;;;;;;2.33;1.10;;;20.30;99.90;;;;;;4999706;28;20046;-65
2021/07/19 08:25:07;;;;;;;1.65;0.40;;;20.40;99.90;;;;;;5001562;28;20050;-67
2021/07/19 08:27:35;;;;;;;1.05;0.60;;;20.40;99.90;;;;;;5000786;28;20111;-67
2021/07/19 08:30:04;;;;;;;1.35;0.60;;;20.30;99.90;;;;;;5003348;28;20050;-65
2021/07/19 08:32:31;;;;;;;2.47;0.93;;;20.30;99.90;;;;;;5002437;28;20053;-65
2021/07/19 08:34:58;;;;;;;3.15;0.70;;;20.30;99.90;;;;;;5002420;28;20382;-65
2021/07/19 08:37:26;;;;;;;8.40;1.33;;;20.30;99.90;;;;;;4997531;28;20050;-65
2021/07/19 08:39:53;;;;;;;0.93;0.38;;;20.20;99.90;;;;;;5002511;28;20053;-66
2021/07/19 08:42:20;;;;;;;0.88;0.55;;;20.40;99.90;;;;;;5001500;28;20041;-66
2021/07/19 08:44:47;;;;;;;2.60;0.45;;;20.50;99.90;;;;;;5003549;28;20100;-67
2021/07/19 08:47:14;;;;;;;0.50;0.30;;;20.50;99.90;;;;;;4998166;28;20046;-65
2021/07/19 08:49:42;;;;;;;2.72;0.50;;;20.50;99.90;;;;;;5002726;28;20467;-67
2021/07/19 08:52:20;;;;;;;0.30;0.20;;;20.60;99.90;;;;;;5001309;28;20050;-65
2021/07/19 08:54:48;;;;;;;0.10;0.05;;;20.40;99.90;;;;;;5002037;28;20199;-65
2021/07/19 08:57:19;;;;;;;0.68;0.25;;;20.40;99.90;;;;;;5000070;28;20058;-65
2021/07/19 08:59:48;;;;;;;0.65;0.30;;;20.40;99.90;;;;;;5004897;28;20088;-67
2021/07/19 09:02:15;;;;;;;0.70;0.45;;;20.40;99.90;;;;;;5001980;28;20050;-66
2021/07/19 09:04:42;;;;;;;1.40;0.47;;;20.40;99.90;;;;;;5003778;28;20104;-66
2021/07/19 09:07:11;;;;;;;0.77;0.40;;;20.50;99.90;;;;;;5003127;28;20058;-66
2021/07/19 09:09:42;;;;;;;1.50;0.60;;;20.50;99.90;;;;;;5000894;28;20045;-67
2021/07/19 09:12:09;;;;;;;2.30;0.40;;;20.50;99.90;;;;;;5004092;28;20058;-65
2021/07/19 09:14:40;;;;;;;4.25;0.30;;;20.30;99.90;;;;;;5000424;28;20145;-66
2021/07/19 09:17:06;;;;;;;0.70;0.30;;;20.30;99.90;;;;;;5004307;28;20084;-66
2021/07/19 09:19:42;;;;;;;1.75;0.60;;;20.30;99.90;;;;;;4999548;28;20674;-67
2021/07/19 09:22:09;;;;;;;2.35;0.30;;;20.40;99.90;;;;;;4986373;28;20112;-68
2021/07/19 09:24:37;;;;;;;1.80;0.30;;;20.50;99.90;;;;;;5000998;28;20493;-66
2021/07/19 09:27:05;;;;;;;0.55;0.40;;;20.50;99.90;;;;;;5006025;28;20050;-65
2021/07/19 09:29:36;;;;;;;0.80;0.32;;;20.50;99.90;;;;;;5000022;28;20496;-67
2021/07/19 09:32:04;;;;;;;2.72;0.60;;;20.50;99.90;;;;;;4993991;28;20148;-66
2021/07/19 09:34:34;;;;;;;4.35;0.40;;;20.50;99.90;;;;;;5003387;28;20050;-67
2021/07/19 09:37:03;;;;;;;0.20;0.20;;;20.60;99.90;;;;;;5000729;28;20045;-66
2021/07/19 09:39:33;;;;;;;5.10;0.60;;;20.60;99.90;;;;;;5000751;28;20435;-65
2021/07/19 09:42:08;;;;;;;1.58;0.40;;;20.60;99.90;;;;;;4998470;28;20034;-65
2021/07/19 09:44:36;;;;;;;1.02;0.30;;;20.70;99.90;;;;;;4998340;28;20499;-66
2021/07/19 09:47:09;;;;;;;1.40;0.55;;;20.70;99.90;;;;;;4979547;28;20089;-66
2021/07/19 09:49:36;;;;;;;3.45;0.40;;;20.70;99.90;;;;;;4997879;28;20510;-66
2021/07/19 09:52:08;;;;;;;3.45;2.08;;;20.80;99.90;;;;;;5001166;28;20455;-65
2021/07/19 09:54:46;;;;;;;2.17;0.28;;;20.80;99.90;;;;;;4998389;28;20503;-66
2021/07/19 09:57:14;;;;;;;0.63;0.55;;;20.80;99.90;;;;;;5002470;28;20081;-65
2021/07/19 10:00:08;;;;;;;1.15;0.70;;;20.70;99.90;;;;;;4998680;28;20082;-66
2021/07/19 10:02:40;;;;;;;2.55;0.52;;;20.70;99.90;;;;;;5001934;28;20229;-67
2021/07/19 10:05:10;;;;;;;2.30;0.57;;;20.60;99.90;;;;;;4999227;28;20057;-66
2021/07/19 10:07:45;;;;;;;1.30;1.13;;;20.70;99.90;;;;;;4998396;28;20077;-66
2021/07/19 10:10:13;;;;;;;1.85;0.20;;;20.70;99.90;;;;;;5002691;28;20050;-66
2021/07/19 10:12:41;;;;;;;4.25;0.60;;;20.70;99.90;;;;;;5003212;28;20058;-67
2021/07/19 10:15:11;;;;;;;1.95;0.28;;;20.70;99.90;;;;;;5001807;28;20080;-65
2021/07/19 10:17:50;;;;;;;2.40;0.40;;;20.70;99.90;;;;;;5000885;28;20049;-66
2021/07/19 10:20:17;;;;;;;2.60;0.50;;;20.80;99.90;;;;;;5003458;28;20434;-66
2021/07/19 10:22:45;;;;;;;2.25;0.70;;;20.80;99.90;;;;;;5000840;28;20073;-66
2021/07/19 10:25:14;;;;;;;0.75;0.40;;;20.70;99.90;;;;;;5000198;28;20077;-66
2021/07/19 10:27:41;;;;;;;1.10;0.52;;;20.70;99.90;;;;;;4998364;28;20080;-66
2021/07/19 10:30:09;;;;;;;1.02;0.43;;;20.70;99.90;;;;;;5000740;28;20050;-65
2021/07/19 10:32:37;;;;;;;1.17;0.45;;;20.70;99.90;;;;;;4995354;28;20080;-66
2021/07/19 10:35:06;;;;;;;0.93;0.45;;;20.70;99.90;;;;;;5001380;28;20476;-67
2021/07/19 10:37:50;;;;;;;2.92;0.43;;;20.70;99.90;;;;;;4998496;28;20050;-65
2021/07/19 10:40:38;;;;;;;0.60;0.50;;;20.90;99.90;;;;;;4999905;28;20046;-67
2021/07/19 10:43:13;;;;;;;0.93;0.30;;;20.90;99.90;;;;;;4979888;28;20081;-65
2021/07/19 10:45:45;;;;;;;1.00;0.30;;;20.80;99.90;;;;;;5001499;28;20108;-66
2021/07/19 10:48:33;;;;;;;3.30;0.70;;;20.90;99.90;;;;;;5001051;28;20076;-66
2021/07/19 10:51:13;;;;;;;0.73;0.30;;;21.00;99.90;;;;;;5003525;28;20046;-65
2021/07/19 10:53:40;;;;;;;0.68;0.50;;;21.00;99.90;;;;;;4993363;28;20042;-67
2021/07/19 10:56:10;;;;;;;3.05;0.75;;;20.90;99.90;;;;;;5000623;28;20499;-65
2021/07/19 10:58:44;;;;;;;1.00;0.40;;;20.80;99.90;;;;;;4997046;28;20128;-66
2021/07/19 11:01:28;;;;;;;2.78;0.88;;;20.80;99.90;;;;;;5001252;28;20441;-67
2021/07/19 11:03:59;;;;;;;2.65;0.70;;;20.80;99.90;;;;;;4999669;28;20420;-67
2021/07/19 11:06:48;;;;;;;1.33;0.70;;;20.90;99.90;;;;;;5002555;28;20054;-65
2021/07/19 11:09:32;;;;;;;2.75;0.85;;;20.90;99.90;;;;;;5000347;28;20057;-65
2021/07/19 11:12:11;;;;;;;0.95;0.70;;;20.80;99.90;;;;;;5001591;28;20379;-65
2021/07/19 11:14:43;;;;;;;1.13;0.43;;;20.90;99.90;;;;;;4984416;28;20723;-66
2021/07/19 11:17:10;;;;;;;0.98;0.45;;;20.90;99.90;;;;;;5001202;28;20484;-65
2021/07/19 11:19:41;;;;;;;1.20;0.70;;;20.90;99.90;;;;;;4999572;28;20559;-67
2021/07/19 11:22:24;;;;;;;;;;;21.00;99.90;;;;;;5003715;28;20053;-68
2021/07/19 11:24:52;;;;;;;1.13;0.47;;;21.00;99.90;;;;;;5000217;28;19996;-66
2021/07/19 11:27:33;;;;;;;0.73;0.73;;;21.00;99.90;;;;;;4991102;28;20141;-66
2021/07/19 11:30:20;;;;;;;3.10;0.37;;;21.00;99.90;;;;;;4999532;28;20075;-66
2021/07/19 11:32:47;;;;;;;0.80;0.70;;;21.10;99.90;;;;;;5003525;28;20818;-66
2021/07/19 11:35:24;;;;;;;6.05;0.85;;;20.80;99.90;;;;;;5003946;28;20972;-65
2021/07/19 11:37:56;;;;;;;2.65;0.57;;;21.10;99.90;;;;;;4997345;28;20492;-66
2021/07/19 11:40:30;;;;;;;1.23;0.52;;;21.10;99.90;;;;;;4997013;28;20455;-65
2021/07/19 11:43:08;;;;;;;0.47;0.32;;;21.20;99.90;;;;;;5001046;28;20309;-66
2021/07/19 11:45:40;;;;;;;2.78;0.93;;;21.10;99.90;;;;;;4998580;28;22361;-68
2021/07/19 11:48:07;;;;;;;0.40;0.22;;;21.10;99.90;;;;;;5000522;28;20075;-66
2021/07/19 11:50:34;;;;;;;2.13;0.40;;;21.10;99.90;;;;;;5002156;28;20132;-67
2021/07/19 11:53:02;;;;;;;0.60;0.30;;;21.10;99.90;;;;;;5005185;28;20054;-66
2021/07/19 11:55:29;;;;;;;1.65;0.73;;;21.10;99.90;;;;;;4982393;28;20042;-67
2021/07/19 11:58:00;;;;;;;2.58;0.45;;;21.00;99.90;;;;;;4995527;28;20053;-65
2021/07/19 12:00:36;;;;;;;1.17;0.40;;;21.00;99.90;;;;;;5003489;28;20046;-65
2021/07/19 12:03:12;;;;;;;1.13;0.30;;;21.10;99.90;;;;;;5001383;28;20069;-66
2021/07/19 12:05:51;;;;;;;0.82;0.40;;;21.10;99.90;;;;;;5000278;28;20050;-67
2021/07/19 12:08:35;;;;;;;1.45;0.30;;;21.20;99.90;;;;;;5003542;28;20129;-66
2021/07/19 12:11:08;;;;;;;0.70;0.17;;;21.10;99.90;;;;;;5002550;28;20396;-66
2021/07/19 12:13:37;;;;;;;1.45;0.45;;;21.10;99.90;;;;;;5001348;28;21011;-66
2021/07/19 12:16:05;;;;;;;0.20;0.20;;;21.00;99.90;;;;;;5000711;28;20052;-65
2021/07/19 12:18:40;;;;;;;1.52;0.65;;;21.20;99.90;;;;;;5005038;28;20132;-66
2021/07/19 12:21:09;;;;;;;2.10;0.20;;;21.30;99.90;;;;;;4983361;28;20058;-67
2021/07/19 12:23:42;;;;;;;2.03;0.30;;;21.50;99.90;;;;;;5003763;28;20074;-66
2021/07/19 12:26:12;;;;;;;1.65;0.52;;;21.30;99.90;;;;;;5006659;28;20288;-66
2021/07/19 12:28:54;;;;;;;1.30;0.40;;;21.30;99.90;;;;;;4999958;28;20042;-66
2021/07/19 12:31:30;;;;;;;0.75;0.30;;;21.20;99.90;;;;;;5001258;28;20046;-66
2021/07/19 12:34:18;;;;;;;0.40;0.30;;;21.10;99.90;;;;;;5004984;28;20132;-66
2021/07/19 12:36:58;;;;;;;1.30;0.30;;;21.10;99.90;;;;;;5003581;28;20050;-67
2021/07/19 12:39:29;;;;;;;0.35;0.20;;;21.20;99.90;;;;;;5000596;28;20105;-66
2021/07/19 12:41:58;;;;;;;0.45;0.30;;;21.00;99.90;;;;;;5001904;28;20053;-67
2021/07/19 12:44:27;;;;;;;0.60;0.30;;;21.10;99.90;;;;;;5004392;28;20050;-68
2021/07/19 12:46:55;;;;;;;2.03;0.40;;;21.40;99.90;;;;;;5004325;28;20062;-66
2021/07/19 12:49:31;;;;;;;0.50;0.50;;;21.50;99.90;;;;;;4999885;28;20118;-67
2021/07/19 12:52:05;;;;;;;2.83;0.45;;;21.60;99.90;;;;;;5004805;28;20443;-65
2021/07/19 12:55:00;;;;;;;0.40;0.17;;;21.40;99.90;;;;;;5000593;28;20069;-67
2021/07/19 12:57:29;;;;;;;1.23;0.10;;;21.30;99.90;;;;;;5004283;28;20136;-66
2021/07/19 12:59:57;;;;;;;0.40;0.40;;;21.40;99.90;;;;;;4997695;28;20107;-65
2021/07/19 13:02:24;;;;;;;0.13;0.08;;;21.30;99.90;;;;;;5004231;28;20104;-67
2021/07/19 13:04:53;;;;;;;0.70;0.40;;;21.40;99.90;;;;;;5002315;28;20141;-68
2021/07/19 13:07:31;;;;;;;0.22;0.15;;;21.30;99.90;;;;;;5002532;28;20145;-66